EPKT Airport Information

Runway Information
Runway 09 Length 9183 ft width 195 ft
Elevation 970 ft Threshold 0 ft Heading 90
Runway 27 Length 9183 ft Width 195 ft
Elevation 994 ft Threshold 0 ft Heading 270
Airport Frequencies
Type APP Name APP Frequency 121.075 MHZ
Type GCCD Name HANDLING Frequency 131.45 MHZ
Type TWR Name TWR Frequency 129.25 MHZ
Airport Navaids
Type NDB Name Katowice Frequency 285 KHZ
Airport Weather Information & NOTAM
ADDS - METARS form results

(1454 UTC 23 May 2022)
Data provider http://aviationweather.gov/metar/data/
 
METAR text: EPKT 231430Z 11010KT 070V140 CAVOK 18/05 Q1011
Conditions at: EPKT (KATOWICE/PYRZOWI, PL) observed 1430 UTC 23 May 2022
Temperature: 18.0°C (64°F)
Dewpoint: 5.0°C (41°F) [RH = 42%]
Pressure (altimeter): 29.85 inches Hg (1011.0 mb)
Winds: from the ESE (110 degrees) at 12 MPH (10 knots; 5.1 m/s)
Visibility: 6 or more miles (10+ km)
Ceiling: ceiling and visibility are OK
Clouds: unknown
Weather: no significant weather observed at this time

METAR text: EPKT 231400Z 12010KT 090V150 CAVOK 18/04 Q1011
Conditions at: EPKT (KATOWICE/PYRZOWI, PL) observed 1400 UTC 23 May 2022
Temperature: 18.0°C (64°F)
Dewpoint: 4.0°C (39°F) [RH = 39%]
Pressure (altimeter): 29.85 inches Hg (1011.0 mb)
Winds: from the ESE (120 degrees) at 12 MPH (10 knots; 5.1 m/s)
Visibility: 6 or more miles (10+ km)
Ceiling: ceiling and visibility are OK
Clouds: unknown
Weather: no significant weather observed at this time

Forecast for: EPKT (KATOWICE/PYRZOWI, PL)
Text: TAF EPKT 231130Z 2312/2412 11008KT CAVOK
Forecast period: 1200 UTC 23 May 2022 to 0800 UTC 24 May 2022
Forecast type: FROM: standard forecast or significant change
Winds: from the ESE (110 degrees) at 9 MPH (8 knots; 4.1 m/s)
Visibility: 6 or more miles (10+ km)
Ceiling: unknown
Clouds: missing
Weather: NSW  (no significant weather)
Text: BECMG 2408/2411 17010KT BKN014
Forecast period: 0800 to 1200 UTC 24 May 2022
Forecast type: BECOMING: Conditions expected to become as follows by 1100 UTC 24 May 2022
Winds: from the S (170 degrees) at 12 MPH (10 knots; 5.1 m/s)
Visibility: 6 or more miles (10+ km)
Ceiling: 1400 feet AGL
Clouds: broken clouds at 1400 feet AGL
Weather: NSW  (no significant weather)
Text: TEMPO 2408/2412 4000 -RA BR
Forecast period: 0800 to 1200 UTC 24 May 2022
Forecast type: TEMPORARY: The following changes expected for less than half the time period
Visibility: 2.49 miles (4.01 km)
Ceiling: unknown
Clouds: missing
Weather: -RA BR  (light rain, mist)